KAXN/AXN METAR and TAF weather

Enter ICAO airport designator
Station Type Date Time Source
KAXN METAR 2020/07/07 09:53 UTC NOAA

KAXN 070953Z AUTO 22006KT 10SM CLR 20/19 A2998 RMK AO2 SLP144 T02000189


Station Type Date Time Source
KAXN Decoded METAR 2020/07/07 09:53 UTC NOAA

CHANDLER FIELD, MN, United States (KAXN) 45-52N 095-24W 433M
Jul 07, 2020 - 05:53 AM EDT / 2020.07.07 0953 UTC
Wind: from the SW (220 degrees) at 7 MPH (6 KT):0
Visibility: 10 mile(s):0
Sky conditions: clear
Temperature: 68.0 F (20.0 C)
Dew Point: 66.0 F (18.9 C)
Relative Humidity: 93%
Pressure (altimeter): 29.98 in. Hg (1015 hPa)
ob: KAXN 070953Z AUTO 22006KT 10SM CLR 20/19 A2998 RMK AO2 SLP144 T02000189
cycle: 10

Station Type Date Time Source
KAXN TAF 2020/07/07 06:27 UTC NOAA

TAF KAXN 070525Z 0706/0806 12003KT P6SM FEW250
FM071500 11005KT P6SM SCT250
FM071900 14007KT P6SM SCT200

Example: see airport list